Time;durP1;ratioP1;P1;durP2;ratioP2;P2;SDS_P1;SDS_P2;PMS_P1;PMS_P2;Temp;Humidity;BMP_temperature;BMP_pressure;BME280_temperature;BME280_humidity;BME280_pressure;Samples;Min_cycle;Max_cycle;Signal;HPM_P1;HPM_P2
2021/06/15 00:00:13;;;;;;;17.23;14.77;;;;;;;;;;2060572;28;20189;-63
2021/06/15 00:01:13;;;;;;;18.40;14.40;;;;;;;;;;2064193;28;20169;-64
2021/06/15 00:02:13;;;;;;;17.08;14.23;;;;;;;;;;2065061;28;20653;-59
2021/06/15 00:03:14;;;;;;;17.70;14.98;;;;;;;;;;2064249;28;20268;-63
2021/06/15 00:04:14;;;;;;;20.48;14.55;;;;;;;;;;2065364;28;20173;-64
2021/06/15 00:05:15;;;;;;;17.95;14.05;;;;;;;;;;2064319;28;20515;-63
2021/06/15 00:06:15;;;;;;;17.75;14.32;;;;;;;;;;2056174;28;20170;-64
2021/06/15 00:07:15;;;;;;;18.58;15.35;;;;;;;;;;2062287;28;20754;-63
2021/06/15 00:08:16;;;;;;;20.35;15.40;;;;;;;;;;2064977;28;20173;-63
2021/06/15 00:09:16;;;;;;;20.40;15.70;;;;;;;;;;2064570;28;20288;-64
2021/06/15 00:10:18;;;;;;;20.25;14.82;;;;;;;;;;2064113;28;20170;-61
2021/06/15 00:11:18;;;;;;;21.25;15.63;;;;;;;;;;2063860;28;20182;-62
2021/06/15 00:12:19;;;;;;;21.60;15.73;;;;;;;;;;2065557;28;20181;-62
2021/06/15 00:13:21;;;;;;;16.63;14.90;;;;;;;;;;2060452;28;20194;-61
2021/06/15 00:14:21;;;;;;;21.52;16.73;;;;;;;;;;2060888;28;20264;-63
2021/06/15 00:15:22;;;;;;;20.55;15.63;;;;;;;;;;2063429;28;20272;-63
2021/06/15 00:16:22;;;;;;;20.42;16.52;;;;;;;;;;2062203;28;20200;-63
2021/06/15 00:17:23;;;;;;;17.48;15.55;;;;;;;;;;2060538;28;20253;-63
2021/06/15 00:18:23;;;;;;;20.25;17.13;;;;;;;;;;2061613;28;20700;-63
2021/06/15 00:19:23;;;;;;;24.58;17.10;;;;;;;;;;2064549;28;20488;-63
2021/06/15 00:20:24;;;;;;;19.88;15.68;;;;;;;;;;2063612;28;20615;-61
2021/06/15 00:21:24;;;;;;;17.63;15.18;;;;;;;;;;2064145;28;20715;-61
2021/06/15 00:22:24;;;;;;;20.98;16.40;;;;;;;;;;2064282;28;20176;-60
2021/06/15 00:23:25;;;;;;;21.27;16.30;;;;;;;;;;2064809;28;20276;-62
2021/06/15 00:24:25;;;;;;;19.17;16.13;;;;;;;;;;2060011;28;20397;-60
2021/06/15 00:25:26;;;;;;;19.92;17.33;;;;;;;;;;2065031;28;20224;-62
2021/06/15 00:26:26;;;;;;;21.42;17.92;;;;;;;;;;2063941;28;20173;-62
2021/06/15 00:27:29;;;;;;;21.23;16.88;;;;;;;;;;2065502;28;20208;-63
2021/06/15 00:28:29;;;;;;;18.58;16.58;;;;;;;;;;2064049;28;20212;-63
2021/06/15 00:29:30;;;;;;;25.15;17.95;;;;;;;;;;2064728;28;20584;-63
2021/06/15 00:30:30;;;;;;;22.13;17.77;;;;;;;;;;2064746;28;20594;-63
2021/06/15 00:31:31;;;;;;;24.95;17.27;;;;;;;;;;2064150;28;20174;-64
2021/06/15 00:32:32;;;;;;;22.73;17.95;;;;;;;;;;2064102;28;20180;-63
2021/06/15 00:33:32;;;;;;;25.35;18.83;;;;;;;;;;2061496;28;20733;-60
2021/06/15 00:34:33;;;;;;;20.80;17.52;;;;;;;;;;2056247;28;20202;-64
2021/06/15 00:35:33;;;;;;;22.10;17.83;;;;;;;;;;2056293;28;20578;-64
2021/06/15 00:36:33;;;;;;;23.08;17.85;;;;;;;;;;2063760;28;20169;-63
2021/06/15 00:37:34;;;;;;;29.00;19.50;;;;;;;;;;2063828;28;20244;-63
2021/06/15 00:38:35;;;;;;;25.00;19.65;;;;;;;;;;2063846;28;20173;-63
2021/06/15 00:39:35;;;;;;;21.88;18.65;;;;;;;;;;2063576;28;20170;-63
2021/06/15 00:40:36;;;;;;;23.08;18.08;;;;;;;;;;2063938;28;20604;-63
2021/06/15 00:41:36;;;;;;;22.50;18.58;;;;;;;;;;2063864;28;20227;-63
2021/06/15 00:42:36;;;;;;;24.92;18.80;;;;;;;;;;2055977;28;20217;-63
2021/06/15 00:43:37;;;;;;;27.33;18.30;;;;;;;;;;2055617;28;20210;-65
2021/06/15 00:44:37;;;;;;;24.35;18.20;;;;;;;;;;2064446;28;20634;-63
2021/06/15 00:45:38;;;;;;;22.67;18.83;;;;;;;;;;2064013;28;20257;-64
2021/06/15 00:46:39;;;;;;;21.35;19.08;;;;;;;;;;2056070;28;20197;-63
2021/06/15 00:47:42;;;;;;;27.08;18.38;;;;;;;;;;2055430;28;20185;-64
2021/06/15 00:48:42;;;;;;;24.00;18.65;;;;;;;;;;2056662;28;20265;-63
2021/06/15 00:49:43;;;;;;;22.38;18.35;;;;;;;;;;2063982;28;20173;-63
2021/06/15 00:50:43;;;;;;;20.98;17.65;;;;;;;;;;2056476;28;20183;-64
2021/06/15 00:51:44;;;;;;;21.23;18.05;;;;;;;;;;2055075;28;20236;-64
2021/06/15 00:52:44;;;;;;;22.75;17.95;;;;;;;;;;2061399;28;20220;-64
2021/06/15 00:53:45;;;;;;;21.02;17.98;;;;;;;;;;2063938;28;20201;-60
2021/06/15 00:54:45;;;;;;;21.45;19.17;;;;;;;;;;2064531;28;20177;-62
2021/06/15 00:55:46;;;;;;;21.05;18.23;;;;;;;;;;2064031;28;20173;-64
2021/06/15 00:56:46;;;;;;;24.60;19.08;;;;;;;;;;2063228;28;20181;-63
2021/06/15 00:57:47;;;;;;;22.23;19.00;;;;;;;;;;2063597;28;20224;-61
2021/06/15 00:58:47;;;;;;;23.75;20.88;;;;;;;;;;2064845;28;20177;-65
2021/06/15 00:59:48;;;;;;;23.70;19.88;;;;;;;;;;2064550;28;20718;-61
2021/06/15 01:00:49;;;;;;;27.10;19.33;;;;;;;;;;2056386;28;20192;-62
2021/06/15 01:01:50;;;;;;;25.55;20.15;;;;;;;;;;2063708;28;20221;-63
2021/06/15 01:02:50;;;;;;;27.10;20.20;;;;;;;;;;2064431;28;20275;-63
2021/06/15 01:03:54;;;;;;;24.27;20.60;;;;;;;;;;2056778;28;20205;-64
2021/06/15 01:04:59;;;;;;;23.30;19.58;;;;;;;;;;2048986;28;20182;-63
2021/06/15 01:06:02;;;;;;;22.58;19.02;;;;;;;;;;2064574;28;20611;-62
2021/06/15 01:07:21;;;;;;;25.50;20.58;;;;;;;;;;2062619;28;20658;-63
2021/06/15 01:09:00;;;;;;;27.48;21.02;;;;;;;;;;2065158;28;20174;-64
2021/06/15 01:10:03;;;;;;;23.80;20.40;;;;;;;;;;2048121;29;20614;-61
2021/06/15 01:11:25;;;;;;;22.00;19.58;;;;;;;;;;2039520;29;20168;-60
2021/06/15 01:12:37;;;;;;;29.42;21.98;;;;;;;;;;2042225;29;20655;-59
2021/06/15 01:13:55;;;;;;;26.90;21.30;;;;;;;;;;2047863;29;20293;-61
2021/06/15 01:15:02;;;;;;;23.73;20.70;;;;;;;;;;2048116;29;20714;-61
2021/06/15 01:16:19;;;;;;;27.10;20.88;;;;;;;;;;2060905;28;20673;-58
2021/06/15 01:17:32;;;;;;;27.23;21.23;;;;;;;;;;2055561;28;20573;-63
2021/06/15 01:18:37;;;;;;;26.90;21.70;;;;;;;;;;2062546;28;20176;-61
2021/06/15 01:19:45;;;;;;;25.40;20.88;;;;;;;;;;2063522;28;20261;-62
2021/06/15 01:20:49;;;;;;;23.63;19.58;;;;;;;;;;2056730;28;20153;-62
2021/06/15 01:22:16;;;;;;;27.48;22.10;;;;;;;;;;2055908;28;20255;-62
2021/06/15 01:23:35;;;;;;;30.48;23.80;;;;;;;;;;2035516;28;20758;-62
2021/06/15 01:24:50;;;;;;;31.48;22.73;;;;;;;;;;2064396;28;20173;-61
2021/06/15 01:25:51;;;;;;;28.70;19.80;;;;;;;;;;2060321;28;20177;-63
2021/06/15 01:27:10;;;;;;;28.63;22.27;;;;;;;;;;2066958;28;20727;-63
2021/06/15 01:28:13;;;;;;;25.98;20.23;;;;;;;;;;2066424;28;20268;-62
2021/06/15 01:29:16;;;;;;;24.20;20.13;;;;;;;;;;2066557;28;20203;-63
2021/06/15 01:30:17;;;;;;;23.60;21.17;;;;;;;;;;2066651;28;20176;-62
2021/06/15 01:31:28;;;;;;;28.80;22.38;;;;;;;;;;2065746;28;20184;-62
2021/06/15 01:32:30;;;;;;;24.50;20.67;;;;;;;;;;2066369;28;20169;-61
2021/06/15 01:33:37;;;;;;;24.88;21.02;;;;;;;;;;2067037;28;20674;-62
2021/06/15 01:34:42;;;;;;;27.20;20.65;;;;;;;;;;2066385;28;20539;-62
2021/06/15 01:35:44;;;;;;;27.10;21.05;;;;;;;;;;2065613;28;20177;-62
2021/06/15 01:36:57;;;;;;;26.15;23.02;;;;;;;;;;2066648;28;20256;-61
2021/06/15 01:38:00;;;;;;;30.45;24.23;;;;;;;;;;2059527;28;20261;-62
2021/06/15 01:39:03;;;;;;;28.63;23.48;;;;;;;;;;2066879;28;20239;-61
2021/06/15 01:40:14;;;;;;;30.90;24.60;;;;;;;;;;2066047;28;20196;-62
2021/06/15 01:42:07;;;;;;;29.27;23.08;;;;;;;;;;2052841;28;20186;-59
2021/06/15 01:43:12;;;;;;;32.40;23.30;;;;;;;;;;2061170;28;20200;-61
2021/06/15 01:44:14;;;;;;;26.60;22.23;;;;;;;;;;2059044;28;20166;-63
2021/06/15 01:45:24;;;;;;;28.67;23.30;;;;;;;;;;2058267;28;20189;-64
2021/06/15 01:46:29;;;;;;;33.50;25.38;;;;;;;;;;2066317;28;20548;-60
2021/06/15 01:47:29;;;;;;;31.40;24.23;;;;;;;;;;2065560;28;20665;-62
2021/06/15 01:48:48;;;;;;;33.67;24.98;;;;;;;;;;2065468;28;20178;-61
2021/06/15 01:49:51;;;;;;;29.30;23.77;;;;;;;;;;2059578;28;20169;-62
2021/06/15 01:50:55;;;;;;;30.50;25.80;;;;;;;;;;2066412;28;20201;-63
2021/06/15 01:51:57;;;;;;;30.25;25.15;;;;;;;;;;2065968;28;20184;-63
2021/06/15 01:52:58;;;;;;;30.02;23.60;;;;;;;;;;2065790;28;20712;-62
2021/06/15 01:54:08;;;;;;;30.58;24.38;;;;;;;;;;2066285;28;20563;-63
2021/06/15 01:55:11;;;;;;;31.08;23.90;;;;;;;;;;2066076;28;20558;-63
2021/06/15 01:56:21;;;;;;;32.05;24.85;;;;;;;;;;2059074;28;20189;-54
2021/06/15 01:57:28;;;;;;;27.58;22.30;;;;;;;;;;2058553;28;20162;-62
2021/06/15 01:58:35;;;;;;;27.67;23.60;;;;;;;;;;2063108;28;20182;-63
2021/06/15 01:59:37;;;;;;;32.88;23.40;;;;;;;;;;2065714;28;20173;-63
2021/06/15 02:00:39;;;;;;;36.13;26.48;;;;;;;;;;2066268;28;20186;-58
2021/06/15 02:01:41;;;;;;;30.70;24.45;;;;;;;;;;2057637;28;20189;-61
2021/06/15 02:02:42;;;;;;;31.45;23.00;;;;;;;;;;2058320;28;20293;-62
2021/06/15 02:03:45;;;;;;;31.17;25.02;;;;;;;;;;2066810;28;20205;-61
2021/06/15 02:04:49;;;;;;;28.60;23.88;;;;;;;;;;2064305;28;20699;-61
2021/06/15 02:05:53;;;;;;;34.90;23.88;;;;;;;;;;2063863;28;20247;-63
2021/06/15 02:06:54;;;;;;;32.53;24.10;;;;;;;;;;2066411;28;20177;-63
2021/06/15 02:07:56;;;;;;;31.10;24.52;;;;;;;;;;2066749;28;20169;-62
2021/06/15 02:08:59;;;;;;;28.30;25.08;;;;;;;;;;2066419;28;20199;-62
2021/06/15 02:10:12;;;;;;;30.45;23.88;;;;;;;;;;2066963;28;20674;-63
2021/06/15 02:11:31;;;;;;;34.03;23.00;;;;;;;;;;2065230;28;20177;-61
2021/06/15 02:12:47;;;;;;;32.70;24.45;;;;;;;;;;2066375;28;20674;-63
2021/06/15 02:14:08;;;;;;;35.85;24.80;;;;;;;;;;2066951;28;20189;-61
2021/06/15 02:15:25;;;;;;;30.67;24.65;;;;;;;;;;2066319;28;20173;-60
2021/06/15 02:16:47;;;;;;;29.70;24.35;;;;;;;;;;2066364;28;20254;-60
2021/06/15 02:18:06;;;;;;;29.70;23.45;;;;;;;;;;2065612;28;20205;-59
2021/06/15 02:19:28;;;;;;;32.63;24.90;;;;;;;;;;2065818;28;20680;-63
2021/06/15 02:20:33;;;;;;;27.65;23.63;;;;;;;;;;2066313;28;20654;-61
2021/06/15 02:21:33;;;;;;;27.08;22.58;;;;;;;;;;2066224;28;20565;-59
2021/06/15 02:22:35;;;;;;;28.13;24.88;;;;;;;;;;2065690;28;20264;-61
2021/06/15 02:23:37;;;;;;;30.50;24.20;;;;;;;;;;2066524;28;20189;-62
2021/06/15 02:24:39;;;;;;;30.00;24.92;;;;;;;;;;2066257;28;20178;-58
2021/06/15 02:25:41;;;;;;;30.08;24.38;;;;;;;;;;2067497;28;20174;-61
2021/06/15 02:26:43;;;;;;;32.88;25.05;;;;;;;;;;2065863;28;20173;-61
2021/06/15 02:27:43;;;;;;;30.95;24.40;;;;;;;;;;2057651;28;20209;-61
2021/06/15 02:28:45;;;;;;;30.40;23.30;;;;;;;;;;2056447;28;20240;-62
2021/06/15 02:29:46;;;;;;;30.60;23.48;;;;;;;;;;2066907;28;20169;-58
2021/06/15 02:30:48;;;;;;;28.73;23.52;;;;;;;;;;2066507;28;20189;-61
2021/06/15 02:31:54;;;;;;;30.90;25.25;;;;;;;;;;2065823;28;20204;-62
2021/06/15 02:32:55;;;;;;;30.15;22.60;;;;;;;;;;2059316;28;20178;-62
2021/06/15 02:34:01;;;;;;;30.13;24.88;;;;;;;;;;2065736;23;20226;-62
2021/06/15 02:35:06;;;;;;;29.25;24.70;;;;;;;;;;2067544;28;20194;-63
2021/06/15 02:36:19;;;;;;;29.92;23.95;;;;;;;;;;2059702;28;20297;-63
2021/06/15 02:37:29;;;;;;;26.52;22.52;;;;;;;;;;2066635;28;20195;-63
2021/06/15 02:38:30;;;;;;;27.88;23.65;;;;;;;;;;2067686;28;20734;-64
2021/06/15 02:39:35;;;;;;;31.92;24.48;;;;;;;;;;2070390;28;20169;-62
2021/06/15 02:40:36;;;;;;;32.53;23.45;;;;;;;;;;2062384;28;20254;-63
2021/06/15 02:41:39;;;;;;;33.65;24.13;;;;;;;;;;2057032;28;20170;-64
2021/06/15 02:42:42;;;;;;;28.80;23.98;;;;;;;;;;2055540;28;20167;-64
2021/06/15 02:43:43;;;;;;;30.52;23.83;;;;;;;;;;2051376;28;20210;-60
2021/06/15 02:44:46;;;;;;;30.63;25.73;;;;;;;;;;2065134;28;20228;-63
2021/06/15 02:45:51;;;;;;;28.35;23.13;;;;;;;;;;2065106;28;20185;-62
2021/06/15 02:46:54;;;;;;;28.55;24.00;;;;;;;;;;2060541;28;20178;-61
2021/06/15 02:47:55;;;;;;;34.03;25.48;;;;;;;;;;2058150;28;20184;-63
2021/06/15 02:48:58;;;;;;;26.35;22.98;;;;;;;;;;2054165;28;20179;-63
2021/06/15 02:49:59;;;;;;;25.70;22.38;;;;;;;;;;2062360;28;20174;-64
2021/06/15 02:51:00;;;;;;;28.15;23.27;;;;;;;;;;2063360;28;20181;-63
2021/06/15 02:52:09;;;;;;;31.27;24.10;;;;;;;;;;2058188;28;20171;-62
2021/06/15 02:53:16;;;;;;;31.58;25.50;;;;;;;;;;2061501;28;20178;-61
2021/06/15 02:54:20;;;;;;;30.73;24.63;;;;;;;;;;2058456;28;20197;-62
2021/06/15 02:55:25;;;;;;;32.00;23.67;;;;;;;;;;2060996;28;20184;-62
2021/06/15 02:56:28;;;;;;;30.63;22.85;;;;;;;;;;2060770;28;20166;-64
2021/06/15 02:57:28;;;;;;;27.83;22.98;;;;;;;;;;2059752;28;20189;-62
2021/06/15 02:58:29;;;;;;;28.58;23.77;;;;;;;;;;2055345;28;20177;-62
2021/06/15 02:59:29;;;;;;;29.13;22.88;;;;;;;;;;2047244;28;20184;-63
2021/06/15 03:00:30;;;;;;;25.02;22.00;;;;;;;;;;2069801;28;20556;-64
2021/06/15 03:01:31;;;;;;;30.00;24.13;;;;;;;;;;2058061;28;20185;-64
2021/06/15 03:02:34;;;;;;;27.58;23.15;;;;;;;;;;2048773;28;20182;-62
2021/06/15 03:03:35;;;;;;;29.33;22.58;;;;;;;;;;2063752;28;20200;-59
2021/06/15 03:04:36;;;;;;;29.60;22.95;;;;;;;;;;2057552;28;20161;-63
2021/06/15 03:05:36;;;;;;;31.02;23.00;;;;;;;;;;2054430;28;20659;-64
2021/06/15 03:06:36;;;;;;;28.52;23.90;;;;;;;;;;2067553;28;20297;-64
2021/06/15 03:07:37;;;;;;;28.42;22.63;;;;;;;;;;2064168;28;20228;-64
2021/06/15 03:08:40;;;;;;;30.17;23.75;;;;;;;;;;2052691;28;20190;-64
2021/06/15 03:09:41;;;;;;;29.58;24.33;;;;;;;;;;2056004;28;20198;-63
2021/06/15 03:10:43;;;;;;;26.85;24.10;;;;;;;;;;2048494;28;20209;-64
2021/06/15 03:11:48;;;;;;;26.80;22.00;;;;;;;;;;2044173;28;20231;-62
2021/06/15 03:12:48;;;;;;;28.02;23.42;;;;;;;;;;2055638;28;20182;-63
2021/06/15 03:14:06;;;;;;;27.95;24.73;;;;;;;;;;2052478;28;20229;-64
2021/06/15 03:15:08;;;;;;;30.67;23.33;;;;;;;;;;2059979;28;20174;-64
2021/06/15 03:16:10;;;;;;;32.45;24.10;;;;;;;;;;2059631;28;20268;-63
2021/06/15 03:17:11;;;;;;;30.70;23.67;;;;;;;;;;2058956;28;20569;-64
2021/06/15 03:18:22;;;;;;;31.83;23.38;;;;;;;;;;2063759;28;20213;-64
2021/06/15 03:19:32;;;;;;;26.58;22.85;;;;;;;;;;2052928;28;20239;-62
2021/06/15 03:20:33;;;;;;;33.58;25.58;;;;;;;;;;2047226;28;20176;-63
2021/06/15 03:21:38;;;;;;;35.90;25.98;;;;;;;;;;2058060;28;20233;-63
2021/06/15 03:22:49;;;;;;;30.58;24.33;;;;;;;;;;2059147;28;20181;-63
2021/06/15 03:23:51;;;;;;;29.38;23.45;;;;;;;;;;2036224;28;20240;-62
2021/06/15 03:24:57;;;;;;;29.52;25.00;;;;;;;;;;2050836;28;20597;-64
2021/06/15 03:26:00;;;;;;;33.30;26.23;;;;;;;;;;2070475;28;20170;-62
2021/06/15 03:27:08;;;;;;;28.00;24.67;;;;;;;;;;2058459;28;20166;-62
2021/06/15 03:28:16;;;;;;;33.47;25.17;;;;;;;;;;2060993;28;20170;-63
2021/06/15 03:29:21;;;;;;;28.60;25.13;;;;;;;;;;2049526;28;20272;-64
2021/06/15 03:30:23;;;;;;;30.58;25.38;;;;;;;;;;2050439;28;20671;-64
2021/06/15 03:31:26;;;;;;;28.65;25.15;;;;;;;;;;2058755;28;20664;-64
2021/06/15 03:32:27;;;;;;;30.63;23.88;;;;;;;;;;2058154;28;20186;-63
2021/06/15 03:33:27;;;;;;;26.27;22.77;;;;;;;;;;2053918;28;20189;-63
2021/06/15 03:34:31;;;;;;;30.58;23.25;;;;;;;;;;2049642;28;20214;-62
2021/06/15 03:35:33;;;;;;;30.15;24.20;;;;;;;;;;2055047;28;20175;-64
2021/06/15 03:36:36;;;;;;;29.42;23.98;;;;;;;;;;2045218;28;20787;-64
2021/06/15 03:37:37;;;;;;;28.98;24.33;;;;;;;;;;2063529;28;20209;-64
2021/06/15 03:38:38;;;;;;;28.23;22.48;;;;;;;;;;2055831;28;20560;-64
2021/06/15 03:39:40;;;;;;;26.60;23.60;;;;;;;;;;2049177;28;20674;-64
2021/06/15 03:40:42;;;;;;;25.65;22.92;;;;;;;;;;2056474;28;20178;-63
2021/06/15 03:41:43;;;;;;;25.52;21.42;;;;;;;;;;2055857;28;20548;-64
2021/06/15 03:42:43;;;;;;;29.33;22.65;;;;;;;;;;2051300;28;20203;-64
2021/06/15 03:43:48;;;;;;;26.08;22.10;;;;;;;;;;2051358;28;20602;-64
2021/06/15 03:44:54;;;;;;;23.88;21.42;;;;;;;;;;2056900;28;20240;-64
2021/06/15 03:45:56;;;;;;;27.33;20.58;;;;;;;;;;2060891;28;20237;-63
2021/06/15 03:46:58;;;;;;;25.42;20.30;;;;;;;;;;2060330;28;20218;-63
2021/06/15 03:48:00;;;;;;;24.05;21.42;;;;;;;;;;2057695;28;20190;-65
2021/06/15 03:49:01;;;;;;;25.90;23.05;;;;;;;;;;2059131;28;20182;-64
2021/06/15 03:50:02;;;;;;;31.17;23.13;;;;;;;;;;2056127;28;20171;-63
2021/06/15 03:51:03;;;;;;;27.80;21.40;;;;;;;;;;2057555;28;20185;-64
2021/06/15 03:52:04;;;;;;;27.60;22.35;;;;;;;;;;2058961;28;20207;-64
2021/06/15 03:53:07;;;;;;;27.55;20.88;;;;;;;;;;2061622;28;20190;-63
2021/06/15 03:54:09;;;;;;;29.45;22.98;;;;;;;;;;2058888;28;20615;-63
2021/06/15 03:55:10;;;;;;;27.60;20.48;;;;;;;;;;2039445;29;20184;-64
2021/06/15 03:56:11;;;;;;;28.83;21.70;;;;;;;;;;2043105;28;20191;-65
2021/06/15 03:57:11;;;;;;;24.48;21.40;;;;;;;;;;2060003;28;20180;-61
2021/06/15 03:58:12;;;;;;;25.15;21.35;;;;;;;;;;2056472;28;20181;-64
2021/06/15 03:59:14;;;;;;;23.13;19.80;;;;;;;;;;2060934;28;20174;-63
2021/06/15 04:00:17;;;;;;;21.35;19.13;;;;;;;;;;2060607;28;20170;-63
2021/06/15 04:01:17;;;;;;;23.67;19.38;;;;;;;;;;2057551;28;20177;-64
2021/06/15 04:02:19;;;;;;;22.35;18.95;;;;;;;;;;2055494;28;20178;-64
2021/06/15 04:03:19;;;;;;;21.35;19.17;;;;;;;;;;2055561;28;20573;-64
2021/06/15 04:04:20;;;;;;;24.90;19.67;;;;;;;;;;2053466;28;20271;-65
2021/06/15 04:05:26;;;;;;;22.65;18.83;;;;;;;;;;2055180;28;20329;-63
2021/06/15 04:06:27;;;;;;;21.73;18.50;;;;;;;;;;2061194;28;20662;-65
2021/06/15 04:07:28;;;;;;;24.88;20.30;;;;;;;;;;2063417;28;20166;-64
2021/06/15 04:08:28;;;;;;;23.05;19.05;;;;;;;;;;2062619;28;20276;-64
2021/06/15 04:09:32;;;;;;;22.00;18.85;;;;;;;;;;2058566;28;20705;-63
2021/06/15 04:10:33;;;;;;;21.08;18.77;;;;;;;;;;2061768;28;20217;-64
2021/06/15 04:11:35;;;;;;;21.63;19.33;;;;;;;;;;2068883;28;20165;-64
2021/06/15 04:12:36;;;;;;;22.15;19.02;;;;;;;;;;2055887;28;20650;-65
2021/06/15 04:13:37;;;;;;;25.63;20.63;;;;;;;;;;2063811;28;20184;-64
2021/06/15 04:14:38;;;;;;;23.73;19.33;;;;;;;;;;2057739;28;20544;-65
2021/06/15 04:15:39;;;;;;;28.02;20.52;;;;;;;;;;2064094;28;20176;-65
2021/06/15 04:16:40;;;;;;;23.10;18.80;;;;;;;;;;2056965;28;20189;-64
2021/06/15 04:17:45;;;;;;;21.63;19.33;;;;;;;;;;2064225;28;20158;-65
2021/06/15 04:18:45;;;;;;;23.75;18.75;;;;;;;;;;2055505;28;20698;-64
2021/06/15 04:19:47;;;;;;;26.58;20.58;;;;;;;;;;2064168;28;20177;-62
2021/06/15 04:20:50;;;;;;;21.50;19.20;;;;;;;;;;2051530;28;20299;-64
2021/06/15 04:21:52;;;;;;;27.50;21.23;;;;;;;;;;2056252;28;20178;-64
2021/06/15 04:22:53;;;;;;;25.42;20.83;;;;;;;;;;2054249;28;20337;-63
2021/06/15 04:23:57;;;;;;;20.98;18.77;;;;;;;;;;2063672;28;20536;-63
2021/06/15 04:24:58;;;;;;;23.77;19.65;;;;;;;;;;2062850;28;20624;-64
2021/06/15 04:25:58;;;;;;;24.38;18.05;;;;;;;;;;2058315;28;20201;-64
2021/06/15 04:26:59;;;;;;;21.88;19.45;;;;;;;;;;2062804;28;20268;-64
2021/06/15 04:28:02;;;;;;;25.63;17.63;;;;;;;;;;2058761;28;20278;-65
2021/06/15 04:29:04;;;;;;;27.55;19.95;;;;;;;;;;2064763;28;20536;-65
2021/06/15 04:30:05;;;;;;;23.67;19.63;;;;;;;;;;2065130;28;20185;-64
2021/06/15 04:31:06;;;;;;;22.60;17.38;;;;;;;;;;2064476;28;20177;-63
2021/06/15 04:32:08;;;;;;;22.38;17.15;;;;;;;;;;2063115;28;20186;-63
2021/06/15 04:33:09;;;;;;;23.33;18.05;;;;;;;;;;2053949;28;20588;-64
2021/06/15 04:34:10;;;;;;;20.17;16.63;;;;;;;;;;2057199;28;20214;-59
2021/06/15 04:35:11;;;;;;;19.02;16.75;;;;;;;;;;2057409;28;20201;-62
2021/06/15 04:36:12;;;;;;;21.45;16.38;;;;;;;;;;2057200;28;20189;-61
2021/06/15 04:37:13;;;;;;;17.63;15.60;;;;;;;;;;2056620;28;20189;-62
2021/06/15 04:38:33;;;;;;;20.45;17.55;;;;;;;;;;2057471;28;20208;-62
2021/06/15 04:39:37;;;;;;;21.98;16.88;;;;;;;;;;2049214;28;20602;-62
2021/06/15 04:40:40;;;;;;;18.73;16.42;;;;;;;;;;2049530;29;20174;-62
2021/06/15 04:42:03;;;;;;;23.48;16.20;;;;;;;;;;2048234;29;20183;-63
2021/06/15 04:43:09;;;;;;;18.25;14.82;;;;;;;;;;2043132;29;20978;-65
2021/06/15 04:44:11;;;;;;;18.83;15.13;;;;;;;;;;2057303;28;20221;-65
2021/06/15 04:45:12;;;;;;;19.80;14.63;;;;;;;;;;2057229;28;20170;-64
2021/06/15 04:46:15;;;;;;;18.98;14.95;;;;;;;;;;2056930;28;20174;-62
2021/06/15 04:47:21;;;;;;;17.40;14.35;;;;;;;;;;2056863;28;20232;-63
2021/06/15 04:48:32;;;;;;;16.02;13.65;;;;;;;;;;2057276;28;20174;-63
2021/06/15 04:49:44;;;;;;;14.93;13.20;;;;;;;;;;2057345;28;20182;-64
2021/06/15 04:50:46;;;;;;;19.52;12.80;;;;;;;;;;2056091;28;20547;-60
2021/06/15 04:51:47;;;;;;;15.75;13.45;;;;;;;;;;2055227;28;20170;-59
2021/06/15 04:52:50;;;;;;;17.98;14.35;;;;;;;;;;2056190;28;20244;-58
2021/06/15 04:53:58;;;;;;;19.38;14.43;;;;;;;;;;2056562;28;20197;-58
2021/06/15 04:55:00;;;;;;;19.17;13.98;;;;;;;;;;2057647;28;20732;-59
2021/06/15 04:56:01;;;;;;;20.38;14.65;;;;;;;;;;2061606;28;20178;-59
2021/06/15 04:57:03;;;;;;;22.42;14.40;;;;;;;;;;2055056;28;20579;-60
2021/06/15 04:58:06;;;;;;;18.10;13.05;;;;;;;;;;2055558;28;20173;-58
2021/06/15 04:59:07;;;;;;;19.85;14.00;;;;;;;;;;2058934;28;20182;-58
2021/06/15 05:00:08;;;;;;;15.27;13.23;;;;;;;;;;2052025;28;20199;-58
2021/06/15 05:01:09;;;;;;;17.83;14.30;;;;;;;;;;2050899;28;20202;-63
2021/06/15 05:02:10;;;;;;;17.02;13.52;;;;;;;;;;2059382;28;20301;-60
2021/06/15 05:03:11;;;;;;;16.80;12.23;;;;;;;;;;2060395;28;20205;-61
2021/06/15 05:04:12;;;;;;;17.70;13.25;;;;;;;;;;2062804;28;20694;-66
2021/06/15 05:05:12;;;;;;;17.55;13.13;;;;;;;;;;2060313;28;20197;-61
2021/06/15 05:06:13;;;;;;;20.48;14.15;;;;;;;;;;2056904;28;20654;-63
2021/06/15 05:07:15;;;;;;;19.48;13.93;;;;;;;;;;2060722;28;20194;-65
2021/06/15 05:08:20;;;;;;;14.65;12.93;;;;;;;;;;2060190;28;20184;-59
2021/06/15 05:09:28;;;;;;;17.35;14.80;;;;;;;;;;2064217;28;20178;-62
2021/06/15 05:10:29;;;;;;;21.20;13.80;;;;;;;;;;2057751;28;20172;-60
2021/06/15 05:11:33;;;;;;;18.88;14.05;;;;;;;;;;2055704;28;20535;-64
2021/06/15 05:12:40;;;;;;;21.73;14.65;;;;;;;;;;2050020;28;20167;-63
2021/06/15 05:13:43;;;;;;;19.85;14.88;;;;;;;;;;2051643;28;20265;-58
2021/06/15 05:14:43;;;;;;;15.68;13.30;;;;;;;;;;2051589;28;20186;-56
2021/06/15 05:15:44;;;;;;;20.67;14.10;;;;;;;;;;2052183;28;20174;-56
2021/06/15 05:16:45;;;;;;;20.38;13.10;;;;;;;;;;2049251;28;20186;-59
2021/06/15 05:17:46;;;;;;;16.48;13.55;;;;;;;;;;2051929;28;20258;-58
2021/06/15 05:18:47;;;;;;;15.77;14.05;;;;;;;;;;2050375;28;20183;-57
2021/06/15 05:19:47;;;;;;;20.60;12.65;;;;;;;;;;2054725;28;20559;-56
2021/06/15 05:20:47;;;;;;;16.40;14.43;;;;;;;;;;2051737;28;20174;-57
2021/06/15 05:22:04;;;;;;;16.00;14.30;;;;;;;;;;2054871;28;20186;-57
2021/06/15 05:23:07;;;;;;;15.60;13.60;;;;;;;;;;2050062;28;20198;-57
2021/06/15 05:24:19;;;;;;;15.88;12.68;;;;;;;;;;2051982;28;20272;-58
2021/06/15 05:25:19;;;;;;;18.63;13.75;;;;;;;;;;2052405;28;20599;-57
2021/06/15 05:26:19;;;;;;;18.00;13.77;;;;;;;;;;2051351;28;20182;-58
2021/06/15 05:27:21;;;;;;;18.00;13.77;;;;;;;;;;2051967;28;20183;-57
2021/06/15 05:28:21;;;;;;;17.67;14.75;;;;;;;;;;2060153;28;20844;-54
2021/06/15 05:29:21;;;;;;;16.98;13.48;;;;;;;;;;2061341;28;20186;-57
2021/06/15 05:30:22;;;;;;;22.45;14.45;;;;;;;;;;2051973;28;20178;-56
2021/06/15 05:31:23;;;;;;;16.40;13.43;;;;;;;;;;2053417;28;20210;-58
2021/06/15 05:32:23;;;;;;;18.52;14.63;;;;;;;;;;2055818;28;20178;-59
2021/06/15 05:33:23;;;;;;;18.42;13.98;;;;;;;;;;2051982;28;20178;-59
2021/06/15 05:34:24;;;;;;;22.77;14.60;;;;;;;;;;2058595;28;20217;-58
2021/06/15 05:35:24;;;;;;;20.08;14.38;;;;;;;;;;2058726;28;20216;-60
2021/06/15 05:36:24;;;;;;;19.92;14.18;;;;;;;;;;2060842;28;20641;-58
2021/06/15 05:37:25;;;;;;;18.35;14.35;;;;;;;;;;2050242;28;20230;-57
2021/06/15 05:38:25;;;;;;;17.60;14.55;;;;;;;;;;2053378;28;20550;-60
2021/06/15 05:39:25;;;;;;;16.50;13.38;;;;;;;;;;2051107;28;20210;-56
2021/06/15 05:40:25;;;;;;;15.15;12.98;;;;;;;;;;2059463;28;20174;-58
2021/06/15 05:41:26;;;;;;;13.43;11.85;;;;;;;;;;2063660;28;20273;-55
2021/06/15 05:42:26;;;;;;;14.75;11.13;;;;;;;;;;2058828;28;20201;-57
2021/06/15 05:43:26;;;;;;;23.67;12.55;;;;;;;;;;2061225;28;20217;-58
2021/06/15 05:44:27;;;;;;;16.75;11.38;;;;;;;;;;2058624;28;20190;-56
2021/06/15 05:45:27;;;;;;;16.48;10.77;;;;;;;;;;2056155;28;20222;-58
2021/06/15 05:46:27;;;;;;;14.32;10.10;;;;;;;;;;2053985;28;20666;-60
2021/06/15 05:47:29;;;;;;;15.05;11.10;;;;;;;;;;2055324;28;20185;-57
2021/06/15 05:48:29;;;;;;;12.55;10.07;;;;;;;;;;2055893;28;20318;-56
2021/06/15 05:49:30;;;;;;;12.10;10.60;;;;;;;;;;2061855;28;20577;-59
2021/06/15 05:50:30;;;;;;;11.98;10.60;;;;;;;;;;2058274;28;20519;-58
2021/06/15 05:51:31;;;;;;;13.00;10.23;;;;;;;;;;2061582;28;20201;-58
2021/06/15 05:52:32;;;;;;;12.55;10.63;;;;;;;;;;2057438;28;20170;-58
2021/06/15 05:53:32;;;;;;;14.55;9.70;;;;;;;;;;2061300;28;20559;-57
2021/06/15 05:54:33;;;;;;;14.35;10.40;;;;;;;;;;2064387;28;20185;-58
2021/06/15 05:55:33;;;;;;;15.30;10.43;;;;;;;;;;2058157;28;20174;-58
2021/06/15 05:56:34;;;;;;;16.58;10.35;;;;;;;;;;2061942;28;20540;-58
2021/06/15 05:57:34;;;;;;;16.35;10.00;;;;;;;;;;2057259;28;20171;-59
2021/06/15 05:58:35;;;;;;;11.70;10.45;;;;;;;;;;2063463;28;20173;-58
2021/06/15 05:59:35;;;;;;;11.80;10.60;;;;;;;;;;2057341;28;20166;-59
2021/06/15 06:00:36;;;;;;;12.27;10.10;;;;;;;;;;2063919;28;20178;-54
2021/06/15 06:01:36;;;;;;;16.08;9.85;;;;;;;;;;2057339;28;20189;-58
2021/06/15 06:02:36;;;;;;;16.52;10.63;;;;;;;;;;2055682;28;20181;-59
2021/06/15 06:03:38;;;;;;;12.18;9.02;;;;;;;;;;2055625;28;20654;-57
2021/06/15 06:08:25;;;;;;;13.63;9.90;;;;;;;;;;2059172;28;20200;-58
2021/06/15 06:09:25;;;;;;;13.52;11.35;;;;;;;;;;2059054;28;20191;-57
2021/06/15 06:10:26;;;;;;;14.07;10.27;;;;;;;;;;2062422;28;20170;-57
2021/06/15 06:11:26;;;;;;;12.15;10.20;;;;;;;;;;2058785;28;20664;-58
2021/06/15 06:12:26;;;;;;;16.35;11.60;;;;;;;;;;2055700;28;20670;-59